Pecos, TX

11:44 AM CDT on May 29, 2015 (GMT -0500)
Alpine | | Change Station
CLOSE
Current Station
Airport
Location: Alpine,
Elevation: 4514 ft
Nearby Weather Stations

Elev 4514 ft 30.38 °N, 103.68 °W | Updated 9 minutes ago

Clear
Clear
86 °F
Feels Like 86 °F
N
9
Wind Variable Wind from WSW
Gusts 16 mph

Today
High -- | Low -- °F
--% Chance of Precip.
Yesterday
High -- | Low -- °F
Precip. -- in
6:51 AM 8:52 PM
Waxing Gibbous, 84% visible
Pressure 30.12 in
Visibility 10.0 miles
Clouds Clear
Dew Point 42 °F
Humidity 22%
Rainfall 0.00 in
Snow Depth Not available.
UV 10 out of 12
Pollen 5.10 out of 12
Air Quality Not available.
Flu Activity Sporadic
METAR KE38 291635Z AUTO 24008G14KT 10SM CLR 30/06 A3012 RMK AO2 T02970057

More Conditions Fewer Conditions

Pressure 30.12 in
Visibility 10.0 miles
Clouds Clear
Dew Point 42 °F
Humidity 22%
Rainfall 0.00 in
Snow Depth Not available.
UV 10 out of 12
Pollen 5.10 out of 12
Air Quality Not available.
Flu Activity Sporadic
METAR KE38 291635Z AUTO 24008G14KT 10SM CLR 30/06 A3012 RMK AO2 T02970057

More Conditions Fewer Conditions

10-Day Weather Forecast

Almanac

Astronomy

May. 29, 2015 Rise Set
Actual Time
Civil Twilight
Nautical Twilight
Astronomical Twilight
Moon
Length of Visible Light
Length of Day
Tomorrow will be .
, % of the Moon is Illuminated

Today's Extremes

State Highs State Lows

Community

WunderPhotos

Upload Photos

1,825,301 photos uploaded!

WunderBlogs® & News

Nearby

Air Quality

  Air Quality AQ Index Pollutant
Not available.

Snow Depth

Station Depth Elevation

Earthquake Activity

City Distance Mag. Time & Date
Minimum magnitude displayed is 2.5.

Coastal Water Temperatures

Place Temperature

Stations

Nearby Weather Stations

Station Location Temp. Windchill Dew Point Humidity Wind Precip. Elev Updated Type